Terminal Aerodrome Forecast
Issued by NWS

Home | Current Version | Previous Version | Text Only | Print | Product List | Glossary On
Versions: 1 2 3 4 5 6 7 8 9 10 11 12 13 14 15 16 17 18 19 20 21 22
223
FTUS43 KDTX 100525
TAFMBS
TAF
KMBS 100525Z 1006/1106 30013KT P6SM -SHSN BKN025 OVC035
     FM101500 30013G18KT 6SM -SHSN BKN025 OVC035
     FM102100 30013KT P6SM SCT035 BKN045
     FM110200 28011KT P6SM SCT045=

USA.gov is the U.S. government's official web portal to all federal, state and local government web resources and services.